world map with ALF marked

ALF - Airport

This information may not be accurate or current and is not valid for navigation or flight planning. No warranty of fitness for any purpose is made or implied.

flag of Norway

Donate via PayPal

Additional information is available on the NEW Great Circle Mapper

Location
City:  Alta, Norway
ICAO / IATA:ENAT / ALF

Details
Type:Airport (Aerodrome, Airfield)
Use:Public/Civil
Latitude:69°58'34"N (69.976111)
Longitude:23°22'18"E (23.371667)
Datum:WGS 1984
Elevation:9 ft (3 m)
Runways:1
Longest:7165 × 131 ft (2184 × 40 m)

Time
Timezone:UTC+1 (DST+4)
Local Time:

Weather
METAR:ENAT  190550Z 20005KT 160V220 9999 BKN004 M12/M14 Q0998 RMK WIND 700FT 16009KT

Related Locations
Nearby:
Farthest:NZWD: 11568 mi / 18617 km
McMurdo Station [Williams Field], Ross Island, AQ

Find:

   beyond  
but within

Other Information
Maps:
Sources:

  


 


Great Circle Mapper   Great Circle Mapper
Great Circle Mapper FAQ   Great Circle Mapper FAQ
  Karl's Home Page
KLSē   KLSē Home
   GC on Facebook
Airlines of the World   Airlines of the World
Donate via PayPal


Copyright © 2004-2019, Karl L. Swartz. All rights reserved.
All trademarks mentioned herein belong to their respective owners.

Please see credits for attribution and copyright information.

Karl Swartz <karl@kls2.com>
  Powered by FreeBSD
Valid HTML 4.01!
Labeled with ICRA
hCard Microformat
Geo Microformat